createdAt,value
2023-01-06T00:00:20.808Z,100920.30
2023-01-06T00:04:02.071Z,100931.90
2023-01-06T00:07:29.030Z,100940.73
2023-01-06T00:10:56.463Z,100947.02
2023-01-06T00:14:23.811Z,100953.11
2023-01-06T00:17:50.953Z,100950.27
2023-01-06T00:21:18.368Z,100956.18
2023-01-06T00:24:46.445Z,100961.56
2023-01-06T00:28:14.394Z,100963.17
2023-01-06T00:31:42.697Z,100965.44
2023-01-06T00:35:10.570Z,100965.83
2023-01-06T00:38:38.864Z,100973.21
2023-01-06T00:42:05.267Z,100978.71
2023-01-06T00:45:33.793Z,100990.20
2023-01-06T00:49:06.200Z,101001.83
2023-01-06T00:52:36.355Z,101005.95
2023-01-06T00:56:06.845Z,101010.39
2023-01-06T00:59:35.039Z,101019.52
2023-01-06T01:03:13.364Z,101018.14
2023-01-06T01:06:42.869Z,101032.52
2023-01-06T01:10:13.665Z,101047.95
2023-01-06T01:13:41.057Z,101059.27
2023-01-06T01:17:08.468Z,101065.44
2023-01-06T01:20:35.771Z,101068.86
2023-01-06T01:24:02.009Z,101069.38
2023-01-06T01:27:29.149Z,101067.63
2023-01-06T01:31:03.845Z,101063.84
2023-01-06T01:34:30.538Z,101059.40
2023-01-06T01:37:57.666Z,101061.60
2023-01-06T01:41:25.983Z,101065.17
2023-01-06T01:45:01.648Z,101063.07
2023-01-06T01:48:37.695Z,101069.70
2023-01-06T01:52:14.273Z,101069.65
2023-01-06T01:55:41.346Z,101065.81
2023-01-06T01:59:12.889Z,101066.10
2023-01-06T02:02:40.674Z,101066.59
2023-01-06T02:06:12.995Z,101064.47
2023-01-06T02:09:46.320Z,101064.23
2023-01-06T02:13:16.363Z,101065.92
2023-01-06T02:16:55.040Z,101072.63
2023-01-06T02:20:39.611Z,101074.00
2023-01-06T02:24:46.058Z,101069.25
2023-01-06T02:28:47.051Z,101064.81
2023-01-06T02:32:29.200Z,101065.50
2023-01-06T02:36:18.450Z,101066.87
2023-01-06T02:39:57.507Z,101069.98
2023-01-06T02:43:32.588Z,101075.66
2023-01-06T02:47:16.750Z,101080.48
2023-01-06T02:50:48.619Z,101095.04
2023-01-06T02:54:21.891Z,101093.81
2023-01-06T02:57:55.434Z,101097.74
2023-01-06T03:01:27.930Z,101097.38
2023-01-06T03:04:57.908Z,101098.02
2023-01-06T03:08:29.461Z,101105.33
2023-01-06T03:11:57.398Z,101108.35
2023-01-06T03:15:26.609Z,101110.56
2023-01-06T03:18:56.081Z,101114.80
2023-01-06T03:22:25.407Z,101115.14
2023-01-06T03:25:52.821Z,101113.25
2023-01-06T03:29:23.022Z,101119.94
2023-01-06T03:33:00.638Z,101125.43
2023-01-06T03:36:38.787Z,101134.38
2023-01-06T03:40:11.227Z,101137.14
2023-01-06T03:43:45.901Z,101132.70
2023-01-06T03:47:18.689Z,101121.55
2023-01-06T03:50:52.216Z,101118.15
2023-01-06T03:54:33.975Z,101127.78
2023-01-06T03:58:04.676Z,101133.46
2023-01-06T04:01:33.071Z,101126.80
2023-01-06T04:05:11.509Z,101111.89
2023-01-06T04:08:38.009Z,101115.83
2023-01-06T04:12:22.743Z,101108.77
2023-01-06T04:15:51.028Z,101106.36
2023-01-06T04:19:18.466Z,101113.05
2023-01-06T04:22:45.198Z,101112.36
2023-01-06T04:26:14.664Z,101111.31
2023-01-06T04:29:49.194Z,101117.11
2023-01-06T04:33:17.215Z,101126.87
2023-01-06T04:36:57.572Z,101136.96
2023-01-06T04:40:27.722Z,101129.56
2023-01-06T04:44:00.973Z,101127.02
2023-01-06T04:47:32.509Z,101126.66
2023-01-06T04:51:09.831Z,101129.95
2023-01-06T04:54:37.313Z,101123.61
2023-01-06T04:58:08.091Z,101115.40
2023-01-06T05:01:37.904Z,101115.58
2023-01-06T05:05:13.821Z,101109.44
2023-01-06T05:08:43.796Z,101109.96
2023-01-06T05:12:12.465Z,101102.63
2023-01-06T05:15:43.467Z,101109.51
2023-01-06T05:19:13.046Z,101114.66
2023-01-06T05:22:40.029Z,101115.36
2023-01-06T05:26:08.264Z,101118.45
2023-01-06T05:29:35.553Z,101118.63
2023-01-06T05:33:02.099Z,101122.53
2023-01-06T05:36:29.310Z,101134.38
2023-01-06T05:39:56.142Z,101133.80
2023-01-06T05:43:23.989Z,101123.81
2023-01-06T05:46:52.159Z,101119.16
2023-01-06T05:50:19.590Z,101118.65
2023-01-06T05:53:49.666Z,101120.87
2023-01-06T05:57:16.018Z,101117.95
2023-01-06T06:00:42.759Z,101115.25
2023-01-06T06:04:09.448Z,101116.14
2023-01-06T06:07:36.047Z,101117.39
2023-01-06T06:11:07.151Z,101127.87
2023-01-06T06:14:34.460Z,101135.96
2023-01-06T06:18:02.810Z,101141.83
2023-01-06T06:21:31.495Z,101150.58
2023-01-06T06:24:59.214Z,101144.44
2023-01-06T06:28:27.344Z,101144.79
2023-01-06T06:31:54.613Z,101147.55
2023-01-06T06:35:21.668Z,101155.10
2023-01-06T06:38:50.472Z,101159.91
2023-01-06T06:42:19.761Z,101165.90
2023-01-06T06:45:50.034Z,101166.23
2023-01-06T06:49:16.844Z,101157.83
2023-01-06T06:52:43.538Z,101161.54
2023-01-06T06:56:11.964Z,101162.89
2023-01-06T06:59:39.365Z,101157.23
2023-01-06T07:03:06.521Z,101159.42
2023-01-06T07:06:33.292Z,101147.42
2023-01-06T07:10:00.153Z,101142.91
2023-01-06T07:13:28.031Z,101135.36
2023-01-06T07:17:01.526Z,101133.67
2023-01-06T07:20:26.656Z,101123.91
2023-01-06T07:23:58.694Z,101134.95
2023-01-06T07:27:25.871Z,101141.65
2023-01-06T07:30:52.652Z,101143.90
2023-01-06T07:34:19.274Z,101155.59
2023-01-06T07:37:45.674Z,101163.34
2023-01-06T07:41:12.158Z,101170.73
2023-01-06T07:44:38.980Z,101159.27
2023-01-06T07:48:06.477Z,101166.46
2023-01-06T07:51:34.790Z,101171.94
2023-01-06T07:55:01.541Z,101166.63
2023-01-06T07:58:28.612Z,101162.48
2023-01-06T08:01:58.935Z,101158.50
2023-01-06T08:05:29.291Z,101150.91
2023-01-06T08:09:00.258Z,101148.29
2023-01-06T08:12:27.712Z,101151.87
2023-01-06T08:15:55.220Z,101147.55
2023-01-06T08:19:22.078Z,101140.02
2023-01-06T08:22:48.561Z,101138.84
2023-01-06T08:26:17.891Z,101143.47
2023-01-06T08:29:44.623Z,101142.49
2023-01-06T08:33:11.193Z,101138.59
2023-01-06T08:36:39.152Z,101140.88
2023-01-06T08:40:10.468Z,101141.24
2023-01-06T08:43:39.055Z,101139.38
2023-01-06T08:47:07.078Z,101149.51
2023-01-06T08:50:36.479Z,101152.27
2023-01-06T08:54:03.261Z,101141.46
2023-01-06T08:57:30.419Z,101136.65
2023-01-06T09:00:57.378Z,101143.51
2023-01-06T09:04:24.526Z,101148.63
2023-01-06T09:07:52.041Z,101154.96
2023-01-06T09:11:19.384Z,101159.71
2023-01-06T09:14:46.153Z,101141.52
2023-01-06T09:18:13.609Z,101130.69
2023-01-06T09:21:43.060Z,101117.98
2023-01-06T09:25:12.710Z,101117.33
2023-01-06T09:28:39.617Z,101117.34
2023-01-06T09:32:06.285Z,101124.56
2023-01-06T09:35:32.764Z,101124.92
2023-01-06T09:38:59.116Z,101121.52
2023-01-06T09:42:42.947Z,101113.27
2023-01-06T09:46:12.046Z,101122.87
2023-01-06T09:49:44.490Z,101116.87
2023-01-06T09:53:19.775Z,101100.41
2023-01-06T09:56:51.155Z,101100.11
2023-01-06T10:00:28.940Z,101093.95
2023-01-06T10:03:57.108Z,101085.72
2023-01-06T10:07:30.778Z,101082.30
2023-01-06T10:11:08.838Z,101076.99
2023-01-06T10:14:47.660Z,101068.41
2023-01-06T10:18:33.271Z,101051.56
2023-01-06T10:22:12.801Z,101047.73
2023-01-06T10:25:43.429Z,101033.30
2023-01-06T10:29:17.585Z,101032.39
2023-01-06T10:32:45.580Z,101029.80
2023-01-06T10:36:16.729Z,101028.21
2023-01-06T10:39:47.346Z,101020.88
2023-01-06T10:43:16.088Z,101013.05
2023-01-06T10:46:49.923Z,101003.70
2023-01-06T10:50:20.284Z,100996.01
2023-01-06T10:53:46.984Z,100993.79
2023-01-06T10:57:22.643Z,100987.60
2023-01-06T11:01:00.206Z,100978.70
2023-01-06T11:04:28.482Z,100971.50
2023-01-06T11:08:04.438Z,100973.90
2023-01-06T11:11:31.817Z,100968.74
2023-01-06T11:15:01.702Z,100971.15
2023-01-06T11:18:31.804Z,100973.55
2023-01-06T11:21:58.172Z,100975.25
2023-01-06T11:25:32.302Z,100973.64
2023-01-06T11:29:18.097Z,100968.80
2023-01-06T11:32:45.235Z,100957.61
2023-01-06T11:36:16.103Z,100942.30
2023-01-06T11:39:49.124Z,100928.89
2023-01-06T11:43:23.526Z,100921.99
2023-01-06T11:46:53.977Z,100911.86
2023-01-06T11:50:23.847Z,100897.14
2023-01-06T11:54:01.694Z,100886.53
2023-01-06T11:57:41.543Z,100874.94
2023-01-06T12:01:17.317Z,100866.23
2023-01-06T12:04:49.864Z,100859.77
2023-01-06T12:08:23.020Z,100854.44
2023-01-06T12:11:53.195Z,100853.77
2023-01-06T12:15:21.367Z,100850.36
2023-01-06T12:18:51.203Z,100848.64
2023-01-06T12:22:26.650Z,100852.92
2023-01-06T12:25:59.169Z,100850.17
2023-01-06T12:29:27.968Z,100839.21
2023-01-06T12:32:58.694Z,100833.33
2023-01-06T12:36:34.914Z,100828.45
2023-01-06T12:40:11.192Z,100825.52
2023-01-06T12:43:42.574Z,100819.48
2023-01-06T12:47:18.303Z,100819.47
2023-01-06T12:50:52.794Z,100823.67
2023-01-06T12:54:25.349Z,100822.73
2023-01-06T12:58:00.584Z,100817.05
2023-01-06T13:01:37.872Z,100806.77
2023-01-06T13:05:34.470Z,100797.31
2023-01-06T13:09:12.369Z,100782.03
2023-01-06T13:13:00.717Z,100780.77
2023-01-06T13:16:33.226Z,100771.42
2023-01-06T13:20:06.196Z,100761.35
2023-01-06T13:23:52.247Z,100756.95
2023-01-06T13:27:42.358Z,100751.98
2023-01-06T13:31:27.872Z,100742.35
2023-01-06T13:35:11.897Z,100741.98
2023-01-06T13:38:57.730Z,100739.39
2023-01-06T13:42:37.433Z,100722.95
2023-01-06T13:46:09.479Z,100708.23
2023-01-06T13:49:39.388Z,100700.33
2023-01-06T13:53:07.973Z,100693.35
2023-01-06T13:56:36.200Z,100689.52
2023-01-06T14:00:18.746Z,100683.80
2023-01-06T14:03:46.999Z,100685.38
2023-01-06T14:07:15.210Z,100686.42
2023-01-06T14:10:44.380Z,100689.15
2023-01-06T14:14:25.379Z,100690.56
2023-01-06T14:17:52.073Z,100687.57
2023-01-06T14:21:24.265Z,100675.45
2023-01-06T14:24:56.676Z,100675.63
2023-01-06T14:28:36.086Z,100668.26
2023-01-06T14:32:07.710Z,100657.80
2023-01-06T14:35:43.496Z,100653.49
2023-01-06T14:39:20.879Z,100656.95
2023-01-06T14:42:53.731Z,100659.33
2023-01-06T14:46:27.135Z,100647.84
2023-01-06T14:50:00.039Z,100645.25
2023-01-06T14:53:33.617Z,100640.63
2023-01-06T14:57:06.289Z,100632.36
2023-01-06T15:00:34.640Z,100626.86
2023-01-06T15:04:05.691Z,100614.36
2023-01-06T15:07:34.990Z,100621.23
2023-01-06T15:11:21.683Z,100615.96
2023-01-06T15:14:48.982Z,100615.80
2023-01-06T15:18:17.520Z,100611.02
2023-01-06T15:21:47.177Z,100606.98
2023-01-06T15:25:24.236Z,100607.02
2023-01-06T15:29:03.478Z,100607.22
2023-01-06T15:32:30.597Z,100599.73
2023-01-06T15:35:58.632Z,100602.45
2023-01-06T15:39:30.427Z,100596.45
2023-01-06T15:42:57.174Z,100600.19
2023-01-06T15:46:24.007Z,100586.78
2023-01-06T15:49:56.731Z,100593.04
2023-01-06T15:53:26.733Z,100584.96
2023-01-06T15:56:53.594Z,100579.61
2023-01-06T16:00:27.335Z,100577.73
2023-01-06T16:03:56.975Z,100568.31
2023-01-06T16:07:36.610Z,100558.68
2023-01-06T16:12:02.781Z,100556.06
2023-01-06T16:15:47.997Z,100551.40
2023-01-06T16:19:24.675Z,100550.02
2023-01-06T16:22:54.679Z,100541.19
2023-01-06T16:26:24.217Z,100539.35
2023-01-06T16:30:08.966Z,100537.30
2023-01-06T16:33:40.496Z,100538.17
2023-01-06T16:37:07.380Z,100533.60
2023-01-06T16:40:34.081Z,100533.98
2023-01-06T16:44:00.375Z,100535.36
2023-01-06T16:47:27.195Z,100539.09
2023-01-06T16:50:55.311Z,100550.17
2023-01-06T16:54:22.306Z,100546.85
2023-01-06T16:57:52.484Z,100531.89
2023-01-06T17:01:23.745Z,100535.13
2023-01-06T17:04:51.558Z,100526.50
2023-01-06T17:08:26.813Z,100523.36
2023-01-06T17:11:54.412Z,100530.66
2023-01-06T17:15:21.027Z,100523.22
2023-01-06T17:18:55.172Z,100512.73
2023-01-06T17:22:28.012Z,100507.95
2023-01-06T17:26:01.752Z,100513.94
2023-01-06T17:29:34.389Z,100515.30
2023-01-06T17:33:01.092Z,100519.23
2023-01-06T17:36:32.851Z,100519.08
2023-01-06T17:40:00.953Z,100520.95
2023-01-06T17:43:36.605Z,100518.23
2023-01-06T17:47:06.980Z,100525.41
2023-01-06T17:50:37.365Z,100526.43
2023-01-06T17:54:29.554Z,100528.30
2023-01-06T17:58:01.597Z,100533.42
2023-01-06T18:01:32.478Z,100532.32
2023-01-06T18:05:04.710Z,100536.03
2023-01-06T18:08:35.455Z,100538.69
2023-01-06T18:12:11.515Z,100520.29
2023-01-06T18:15:38.773Z,100533.56
2023-01-06T18:19:33.770Z,100536.88
2023-01-06T18:23:04.208Z,100527.34
2023-01-06T18:26:41.237Z,100532.29
2023-01-06T18:30:21.920Z,100534.43
2023-01-06T18:33:53.558Z,100540.81
2023-01-06T18:37:23.086Z,100544.63
2023-01-06T18:40:51.142Z,100554.20
2023-01-06T18:44:26.960Z,100567.30
2023-01-06T18:47:58.158Z,100563.50
2023-01-06T18:51:26.012Z,100555.56
2023-01-06T18:54:57.449Z,100560.15
2023-01-06T18:58:39.076Z,100568.17
2023-01-06T19:02:25.832Z,100570.73
2023-01-06T19:05:53.673Z,100572.27
2023-01-06T19:09:27.945Z,100576.75
2023-01-06T19:13:00.027Z,100577.11
2023-01-06T19:16:36.400Z,100568.34
2023-01-06T19:20:18.167Z,100565.88
2023-01-06T19:23:55.692Z,100566.49
2023-01-06T19:27:40.364Z,100568.97
2023-01-06T19:31:17.916Z,100576.38
2023-01-06T19:34:45.873Z,100577.61
2023-01-06T19:38:27.705Z,100576.94
2023-01-06T19:42:00.066Z,100578.66
2023-01-06T19:45:35.154Z,100579.20
2023-01-06T19:49:02.250Z,100589.70
2023-01-06T19:52:44.837Z,100589.80
2023-01-06T19:56:27.504Z,100598.20
2023-01-06T19:59:59.542Z,100603.58
2023-01-06T20:03:31.547Z,100610.14
2023-01-06T20:07:02.907Z,100604.90
2023-01-06T20:10:34.917Z,100603.39
2023-01-06T20:14:04.337Z,100596.24
2023-01-06T20:17:36.961Z,100603.33
2023-01-06T20:21:05.638Z,100604.65
2023-01-06T20:24:38.469Z,100603.23
2023-01-06T20:28:14.844Z,100602.67
2023-01-06T20:31:54.937Z,100608.73
2023-01-06T20:35:26.819Z,100614.98
2023-01-06T20:39:01.740Z,100608.88
2023-01-06T20:42:35.152Z,100614.17
2023-01-06T20:46:08.929Z,100615.91
2023-01-06T20:49:37.360Z,100616.81
2023-01-06T20:53:07.949Z,100621.00
2023-01-06T20:56:42.904Z,100624.69
2023-01-06T21:00:22.050Z,100634.73
2023-01-06T21:03:59.657Z,100642.78
2023-01-06T21:07:27.357Z,100645.73
2023-01-06T21:10:59.380Z,100642.39
2023-01-06T21:14:28.374Z,100649.50
2023-01-06T21:18:04.346Z,100659.70
2023-01-06T21:21:33.622Z,100663.34
2023-01-06T21:25:06.838Z,100664.56
2023-01-06T21:28:39.063Z,100665.42
2023-01-06T21:32:08.550Z,100665.55
2023-01-06T21:35:43.692Z,100660.48
2023-01-06T21:39:14.925Z,100664.57
2023-01-06T21:43:02.720Z,100668.75
2023-01-06T21:46:38.497Z,100675.30
2023-01-06T21:50:09.951Z,100683.59
2023-01-06T21:53:45.155Z,100691.58
2023-01-06T21:57:18.218Z,100688.73
2023-01-06T22:00:49.951Z,100696.70
2023-01-06T22:04:26.877Z,100693.45
2023-01-06T22:07:57.516Z,100701.91
2023-01-06T22:11:34.101Z,100718.49
2023-01-06T22:15:04.616Z,100719.04
2023-01-06T22:18:33.111Z,100728.05
2023-01-06T22:22:05.686Z,100731.19
2023-01-06T22:25:32.849Z,100739.02
2023-01-06T22:29:01.181Z,100742.14
2023-01-06T22:32:29.723Z,100753.36
2023-01-06T22:36:03.423Z,100759.09
2023-01-06T22:39:32.044Z,100764.96
2023-01-06T22:42:59.414Z,100774.02
2023-01-06T22:46:35.583Z,100765.52
2023-01-06T22:50:02.930Z,100766.60
2023-01-06T22:53:31.901Z,100763.06
2023-01-06T22:57:02.515Z,100761.55
2023-01-06T23:00:29.555Z,100761.25
2023-01-06T23:03:58.640Z,100761.28
2023-01-06T23:07:30.240Z,100754.98
2023-01-06T23:11:05.087Z,100763.90
2023-01-06T23:14:34.029Z,100774.46
2023-01-06T23:18:00.767Z,100772.94
2023-01-06T23:21:31.607Z,100775.74
2023-01-06T23:25:00.511Z,100778.05
2023-01-06T23:28:29.215Z,100776.80
2023-01-06T23:31:58.987Z,100776.69
2023-01-06T23:35:38.095Z,100775.67
2023-01-06T23:39:10.889Z,100775.20
2023-01-06T23:42:48.020Z,100771.49
2023-01-06T23:46:19.275Z,100775.16
2023-01-06T23:49:48.506Z,100772.52
2023-01-06T23:53:15.649Z,100767.74
2023-01-06T23:56:43.459Z,100767.77
